.
WxDataArchive / Data Records for 2007-07-11
2007-07-10 July 2007 2007-07-12

Data Records for Wednesday, 11 July 2007

Time	Temp	Chill	HIndex	Humid	Dewpt	 Wind 	HiWind	WindDir	Rain 	Barom 
-----	----	-----	------	-----	-----	------	------	-------	-----	----- 
00:00	71.5	71.5	71.5	93	69.4	0	1	270	0.00	29.709 
00:05	71.3	71.3	71.3	93	69.2	0	3	270	0.01	29.704 
00:10	70.9	70.9	70.9	92	68.5	0	2	315	0.00	29.694 
00:15	70.6	70.6	70.6	91	67.8	0	1	315	0.00	29.693 
00:20	70.6	70.6	70.6	92	68.2	0	1	315	0.00	29.693 
00:25	70.4	70.4	70.4	91	67.6	0	1	315	0.00	29.692 
00:30	70.1	70.1	70.1	91	67.3	0	3	270	0.00	29.690 
00:35	69.8	69.8	69.8	90	66.7	1	2	270	0.01	29.689 
00:40	69.6	69.6	69.6	91	66.8	0	1	270	0.00	29.685 
00:45	69.4	69.4	69.4	91	66.7	0	1	270	0.00	29.688 
00:50	69.3	69.3	69.3	92	66.9	0	1	270	0.00	29.683 
00:55	69.3	69.3	69.3	92	66.9	0	1	270	0.00	29.684 
01:00	69.3	69.3	69.3	92	66.9	0	1	270	0.00	29.684 
01:05	69.4	69.4	69.4	93	67.3	0	1	270	0.00	29.685 
01:10	69.4	69.4	69.4	93	67.3	0	0	---	0.00	29.684 
01:15	69.4	69.4	69.4	94	67.6	0	0	---	0.00	29.684 
01:20	69.6	69.6	69.6	94	67.8	0	1	270	0.00	29.687 
01:25	69.8	69.8	69.8	95	68.3	0	1	270	0.00	29.686 
01:30	69.9	69.9	69.9	95	68.4	0	1	270	0.00	29.685 
01:35	70.3	70.3	70.3	94	68.5	0	2	270	0.00	29.687 
01:40	70.3	70.3	70.3	94	68.5	1	2	315	0.00	29.687 
01:45	70.4	70.4	70.4	94	68.6	1	2	315	0.00	29.689 
01:50	70.6	70.6	70.6	94	68.8	1	3	315	0.00	29.685 
01:55	70.8	70.8	70.8	93	68.7	1	3	292	0.00	29.687 
02:00	70.8	70.8	70.8	93	68.7	0	2	292	0.01	29.685 
02:05	70.8	70.8	70.8	93	68.7	0	2	292	0.00	29.683 
02:10	70.8	70.8	70.8	93	68.7	0	1	292	0.00	29.683 
02:15	70.8	70.8	70.8	94	69.0	0	1	292	0.00	29.684 
02:20	70.8	70.8	70.8	94	69.0	0	1	292	0.00	29.682 
02:25	70.8	70.8	70.8	94	69.0	0	2	292	0.00	29.679 
02:30	70.8	70.8	70.8	94	69.0	0	1	292	0.00	29.678 
02:35	70.8	70.8	70.8	94	69.0	0	1	292	0.00	29.678 
02:40	70.6	70.6	70.6	94	68.8	0	1	292	0.00	29.680 
02:45	70.6	70.6	70.6	94	68.8	0	1	292	0.00	29.683 
02:50	70.6	70.6	70.6	94	68.8	0	1	292	0.00	29.683 
02:55	70.4	70.4	70.4	94	68.6	0	2	270	0.00	29.689 
03:00	70.4	70.4	70.4	94	68.6	0	1	270	0.00	29.689 
03:05	70.4	70.4	70.4	94	68.6	0	2	270	0.00	29.688 
03:10	70.3	70.3	70.3	94	68.5	0	2	270	0.00	29.690 
03:15	70.3	70.3	70.3	94	68.5	0	2	270	0.00	29.687 
03:20	70.3	70.3	70.3	94	68.5	1	2	270	0.00	29.688 
03:25	70.4	70.4	70.4	93	68.3	0	2	270	0.00	29.687 
03:30	70.4	70.4	70.4	93	68.3	1	2	315	0.00	29.686 
03:35	70.4	70.4	70.4	92	68.0	0	2	315	0.00	29.683 
03:40	70.3	70.3	70.3	92	67.9	0	2	292	0.00	29.683 
03:45	70.1	70.1	70.1	92	67.7	0	1	292	0.00	29.681 
03:50	70.1	70.1	70.1	91	67.3	1	3	292	0.00	29.682 
03:55	70.1	70.1	70.1	91	67.3	0	2	292	0.00	29.686 
04:00	70.1	70.1	70.1	90	67.0	0	1	315	0.00	29.686 
04:05	69.9	69.9	69.9	90	66.8	0	2	315	0.00	29.689 
04:10	69.9	69.9	69.9	89	66.5	1	3	315	0.00	29.690 
04:15	69.8	69.8	69.8	88	66.1	0	2	315	0.00	29.690 
04:20	69.6	69.6	69.6	88	65.9	0	1	315	0.00	29.692 
04:25	69.6	69.6	69.6	88	65.9	0	3	315	0.00	29.695 
04:30	69.4	69.4	69.4	87	65.4	0	1	292	0.00	29.695 
04:35	69.4	69.4	69.4	86	65.0	0	2	292	0.00	29.696 
04:40	69.4	69.4	69.4	84	64.3	1	3	292	0.00	29.697 
04:45	69.4	69.4	69.4	81	63.3	0	3	315	0.00	29.701 
04:50	69.4	69.4	69.4	80	63.0	0	1	270	0.00	29.702 
04:55	69.3	69.3	69.3	80	62.9	0	1	270	0.00	29.706 
05:00	69.1	69.1	69.1	79	62.3	0	1	248	0.00	29.709 
05:05	68.9	68.9	68.9	79	62.1	0	1	248	0.00	29.711 
05:10	68.8	68.8	68.8	77	61.3	0	2	292	0.00	29.713 
05:15	68.6	68.6	68.6	75	60.3	0	2	292	0.00	29.715 
05:20	68.6	68.6	68.6	74	60.0	0	1	292	0.00	29.721 
05:25	68.4	68.4	68.4	70	58.2	1	2	292	0.00	29.726 
05:30	68.3	68.3	68.3	69	57.7	0	2	315	0.00	29.728 
05:35	68.1	68.1	68.1	68	57.1	1	3	315	0.00	29.729 
05:40	68.1	68.1	68.1	68	57.1	0	1	315	0.00	29.730 
05:45	67.9	67.9	67.9	69	57.3	0	1	315	0.00	29.730 
05:50	67.8	67.8	67.8	69	57.2	0	1	315	0.00	29.732 
05:55	67.8	67.8	67.8	69	57.2	0	1	315	0.00	29.733 
06:00	67.6	67.6	67.6	70	57.5	0	1	315	0.00	29.733 
06:05	67.6	67.6	67.6	72	58.2	0	1	315	0.00	29.739 
06:10	67.6	67.6	67.6	72	58.2	0	3	315	0.00	29.741 
06:15	67.8	67.8	67.8	73	58.8	0	3	315	0.00	29.745 
06:20	67.8	67.8	67.8	72	58.4	0	2	315	0.00	29.746 
06:25	67.9	67.9	67.9	71	58.1	1	3	315	0.00	29.748 
06:30	68.3	68.3	68.3	71	58.5	0	2	315	0.00	29.749 
06:35	68.3	68.3	68.3	69	57.7	1	3	225	0.00	29.750 
06:40	68.3	68.3	68.3	69	57.7	1	2	315	0.00	29.754 
06:45	68.3	68.3	68.3	68	57.3	1	3	270	0.00	29.757 
06:50	68.4	68.4	68.4	66	56.6	1	4	270	0.00	29.760 
06:55	68.4	68.4	68.4	66	56.6	1	3	338	0.00	29.760 
07:00	68.3	68.3	68.3	65	56.1	2	4	315	0.00	29.762 
07:05	68.1	68.1	68.1	65	55.9	1	2	315	0.00	29.766 
07:10	67.9	67.9	67.9	65	55.7	1	3	315	0.00	29.766 
07:15	67.9	67.9	67.9	65	55.7	0	2	315	0.00	29.768 
07:20	68.1	68.1	68.1	64	55.5	1	4	315	0.00	29.769 
07:25	68.6	68.6	68.6	63	55.5	1	3	315	0.00	29.771 
07:30	69.3	69.3	69.3	63	56.2	1	3	315	0.00	29.771 
07:35	69.8	69.8	69.8	61	55.7	1	4	315	0.00	29.775 
07:40	70.1	70.1	70.1	63	56.9	1	3	292	0.00	29.778 
07:45	70.4	70.4	70.4	63	57.2	1	5	225	0.00	29.777 
07:50	70.4	70.4	70.4	62	56.7	2	5	270	0.00	29.779 
07:55	70.3	70.3	70.3	63	57.1	3	5	315	0.00	29.780 
08:00	70.1	70.1	70.1	64	57.3	1	3	292	0.00	29.780 
08:05	70.6	70.6	70.6	63	57.4	1	3	315	0.00	29.782 
08:10	70.9	70.9	70.9	63	57.7	2	4	292	0.00	29.784 
08:15	71.1	71.1	71.1	61	57.0	2	6	315	0.00	29.786 
08:20	71.1	71.1	71.1	61	57.0	2	5	292	0.00	29.788 
08:25	71.3	71.3	71.3	61	57.1	3	5	292	0.00	29.790 
08:30	71.6	71.6	71.6	61	57.4	2	5	315	0.00	29.791 
08:35	71.3	71.3	71.3	61	57.1	2	4	292	0.00	29.794 
08:40	71.8	71.8	71.8	61	57.6	2	7	270	0.00	29.792 
08:45	71.8	71.8	71.8	58	56.2	3	5	315	0.00	29.792 
08:50	71.6	71.6	71.6	58	56.0	3	5	315	0.00	29.794 
08:55	71.8	71.8	71.8	57	55.7	3	5	315	0.00	29.795 
09:00	72.0	72.0	72.0	55	54.9	3	10	292	0.00	29.795 
09:05	72.3	72.3	72.3	56	55.7	2	4	315	0.00	29.800 
09:10	72.3	72.3	72.3	55	55.2	2	4	270	0.00	29.803 
09:15	72.3	72.3	72.3	55	55.2	3	6	292	0.00	29.808 
09:20	72.1	72.1	72.1	55	55.0	3	6	315	0.00	29.810 
09:25	72.1	72.1	72.1	55	55.0	2	5	315	0.00	29.811 
09:30	72.5	72.5	72.5	54	54.9	3	6	315	0.00	29.809 
09:35	72.8	72.8	72.8	54	55.2	2	7	292	0.00	29.810 
09:40	73.0	73.0	73.0	54	55.4	2	6	270	0.00	29.811 
09:45	73.3	73.3	73.3	53	55.1	1	4	292	0.00	29.811 
09:50	72.7	72.7	72.7	53	54.6	3	6	270	0.00	29.813 
09:55	73.0	73.0	73.0	54	55.4	2	7	292	0.00	29.813 
10:00	73.3	73.3	73.3	52	54.6	3	6	270	0.00	29.813 
10:05	73.3	73.3	73.3	53	55.1	3	7	292	0.00	29.815 
10:10	73.3	73.3	73.3	52	54.6	3	5	292	0.00	29.817 
10:15	73.2	73.2	73.2	52	54.5	3	6	315	0.00	29.815 
10:20	73.3	73.3	73.3	51	54.1	3	7	292	0.00	29.815 
10:25	73.7	73.7	73.7	51	54.4	3	7	270	0.00	29.817 
10:30	73.7	73.7	73.7	50	53.9	3	5	315	0.00	29.816 
10:35	73.9	73.9	73.9	53	55.7	2	5	315	0.00	29.814 
10:40	73.9	73.9	73.9	50	54.1	2	7	292	0.00	29.819 
10:45	74.2	74.2	74.2	51	54.9	2	5	292	0.00	29.817 
10:50	74.2	74.2	74.2	50	54.3	2	5	338	0.00	29.818 
10:55	74.0	74.0	74.0	49	53.6	3	6	270	0.00	29.822 
11:00	74.6	74.6	74.6	47	53.0	3	5	270	0.00	29.824 
11:05	74.7	74.7	74.7	49	54.3	2	4	315	0.00	29.831 
11:10	74.6	74.6	74.6	51	55.3	2	6	315	0.00	29.831 
11:15	74.4	74.4	74.4	50	54.5	3	7	315	0.00	29.832 
11:20	74.2	74.2	74.2	48	53.2	3	7	292	0.00	29.833 
11:25	74.6	74.6	74.6	50	54.7	2	4	292	0.00	29.831 
11:30	74.6	74.6	74.6	49	54.2	3	7	315	0.00	29.832 
11:35	74.9	74.9	74.9	49	54.4	2	4	292	0.00	29.832 
11:40	74.9	74.9	74.9	49	54.4	3	9	292	0.00	29.835 
11:45	74.4	74.4	74.4	48	53.4	3	6	315	0.00	29.834 
11:50	74.6	74.6	74.6	47	53.0	2	6	270	0.00	29.838 
11:55	74.9	74.9	74.9	47	53.3	3	6	292	0.00	29.841 
12:00	74.6	74.6	74.6	47	53.0	3	9	292	0.00	29.841 
12:05	74.9	74.9	74.9	48	53.9	1	4	315	0.00	29.840 
12:10	75.3	75.3	77.7	48	54.2	2	5	270	0.00	29.839 
12:15	75.4	75.4	77.8	48	54.3	2	5	315	0.00	29.840 
12:20	75.8	75.8	77.9	47	54.1	2	6	315	0.00	29.839 
12:25	75.6	75.6	77.8	46	53.3	3	5	270	0.00	29.838 
12:30	75.6	75.6	77.9	48	54.5	3	6	292	0.00	29.839 
12:35	75.6	75.6	77.8	43	51.5	2	11	292	0.00	29.837 
12:40	75.4	75.4	77.7	43	51.3	3	7	292	0.00	29.844 
12:45	75.1	75.1	77.6	45	52.3	2	5	270	0.00	29.840 
12:50	76.0	76.0	78.0	46	53.7	1	4	315	0.00	29.836 
12:55	75.8	75.8	77.9	44	52.3	2	6	315	0.00	29.844 
13:00	76.0	76.0	78.0	46	53.7	2	5	315	0.00	29.841 
13:05	75.8	75.8	77.9	44	52.3	3	7	270	0.00	29.834 
13:10	76.0	76.0	78.0	44	52.5	2	5	315	0.00	29.837 
13:15	76.0	76.0	78.0	44	52.5	2	4	292	0.00	29.839 
13:20	76.3	76.3	78.0	43	52.1	1	4	292	0.00	29.841 
13:25	76.5	76.5	78.1	43	52.3	3	4	270	0.00	29.841 
13:30	76.3	76.3	78.0	42	51.5	3	6	270	0.00	29.840 
13:35	76.1	76.1	77.9	42	51.3	2	7	338	0.00	29.840 
13:40	76.5	76.5	78.1	42	51.7	2	6	315	0.00	29.836 
13:45	76.1	76.1	78.0	43	52.0	2	5	292	0.00	29.840 
13:50	76.5	76.5	78.1	41	51.0	2	5	270	0.00	29.837 
13:55	77.2	77.2	78.4	42	52.3	2	6	292	0.00	29.840 
14:00	77.2	77.2	78.3	40	51.0	3	5	270	0.00	29.841 
14:05	77.0	77.0	78.3	41	51.5	3	6	315	0.00	29.843 
14:10	77.2	77.2	78.3	40	51.0	1	4	292	0.00	29.841 
14:15	77.7	77.7	78.6	40	51.4	2	5	270	0.00	29.839 
14:20	77.4	77.4	78.5	41	51.8	2	7	315	0.00	29.843 
14:25	77.6	77.6	78.5	39	50.7	2	7	292	0.00	29.837 
14:30	77.2	77.2	78.3	40	51.0	2	5	292	0.00	29.841 
14:35	77.2	77.2	78.3	40	51.0	2	5	292	0.00	29.839 
14:40	77.2	77.2	78.2	38	49.6	3	7	270	0.00	29.834 
14:45	77.6	77.6	78.5	39	50.7	3	6	292	0.00	29.840 
14:50	77.9	77.9	78.6	39	50.9	2	7	338	0.00	29.839 
14:55	77.9	77.9	78.6	39	50.9	2	4	292	0.00	29.835 
15:00	77.7	77.7	78.4	37	49.3	2	4	292	0.00	29.835 
15:05	77.4	77.4	78.4	39	50.5	3	6	292	0.00	29.836 
15:10	77.6	77.6	78.4	37	49.2	2	5	315	0.00	29.836 
15:15	77.7	77.7	78.3	36	48.6	2	5	315	0.00	29.843 
15:20	77.4	77.4	78.2	36	48.3	3	7	315	0.00	29.847 
15:25	77.7	77.7	78.3	36	48.6	4	10	270	0.00	29.845 
15:30	78.1	78.1	78.6	37	49.7	2	6	315	0.00	29.846 
15:35	77.7	77.7	78.3	35	47.8	3	11	270	0.00	29.847 
15:40	77.7	77.7	78.3	36	48.6	2	4	292	0.00	29.845 
15:45	77.7	77.7	78.3	36	48.6	2	5	292	0.00	29.846 
15:50	77.4	77.4	78.1	35	47.6	3	6	292	0.00	29.849 
15:55	77.7	77.7	78.3	36	48.6	2	6	270	0.00	29.849 
16:00	77.7	77.7	78.3	36	48.6	3	5	315	0.00	29.849 
16:05	77.6	77.6	78.2	35	47.8	3	7	292	0.00	29.850 
16:10	77.7	77.7	78.3	35	47.8	2	10	315	0.00	29.849 
16:15	77.7	77.7	78.3	35	47.8	2	5	270	0.00	29.852 
16:20	78.1	78.1	78.4	34	47.4	2	5	315	0.00	29.854 
16:25	77.4	77.4	78.1	34	46.8	3	6	315	0.00	29.853 
16:30	77.6	77.6	78.2	34	47.0	2	4	292	0.00	29.852 
16:35	77.4	77.4	78.0	33	46.0	2	6	315	0.00	29.853 
16:40	77.4	77.4	77.9	31	44.4	3	11	315	0.00	29.856 
16:45	77.2	77.2	77.9	33	45.8	2	5	315	0.00	29.860 
16:50	77.4	77.4	78.1	34	46.8	1	4	315	0.00	29.859 
16:55	77.2	77.2	78.1	35	47.4	2	6	292	0.00	29.864 
17:00	76.7	76.7	77.7	33	45.4	3	7	315	0.00	29.864 
17:05	76.5	76.5	77.7	33	45.2	3	7	270	0.00	29.868 
17:10	76.7	76.7	77.7	33	45.4	2	5	292	0.00	29.870 
17:15	76.7	76.7	77.7	33	45.4	2	4	315	0.00	29.872 
17:20	76.1	76.1	77.4	32	44.1	3	7	292	0.00	29.872 
17:25	75.8	75.8	77.2	30	42.1	3	7	292	0.00	29.873 
17:30	75.8	75.8	77.3	31	43.0	2	5	315	0.00	29.873 
17:35	75.6	75.6	77.1	30	42.0	2	7	315	0.00	29.873 
17:40	75.4	75.4	77.1	30	41.8	2	7	315	0.00	29.875 
17:45	75.1	75.1	77.0	31	42.4	3	9	292	0.00	29.876 
17:50	75.1	75.1	77.0	31	42.4	2	4	315	0.00	29.877 
17:55	75.1	75.1	77.0	31	42.4	2	5	270	0.00	29.881 
18:00	74.9	74.9	74.9	32	43.0	2	4	315	0.00	29.879 
18:05	74.7	74.7	74.7	33	43.7	1	5	292	0.00	29.881 
18:10	74.7	74.7	74.7	34	44.4	2	4	315	0.00	29.883 
18:15	74.4	74.4	74.4	33	43.4	2	5	292	0.00	29.884 
18:20	74.0	74.0	74.0	33	43.1	3	7	270	0.00	29.884 
18:25	73.7	73.7	73.7	33	42.8	3	6	292	0.00	29.886 
18:30	73.5	73.5	73.5	33	42.6	2	4	315	0.00	29.887 
18:35	73.5	73.5	73.5	32	41.8	2	5	292	0.00	29.887 
18:40	73.3	73.3	73.3	32	41.6	2	6	292	0.00	29.891 
18:45	73.2	73.2	73.2	34	43.1	1	5	292	0.00	29.893 
18:50	73.2	73.2	73.2	33	42.4	2	5	315	0.00	29.896 
18:55	72.8	72.8	72.8	31	40.4	3	6	315	0.00	29.899 
19:00	72.7	72.7	72.7	32	41.1	2	5	270	0.00	29.900 
19:05	72.3	72.3	72.3	33	41.6	1	4	292	0.00	29.899 
19:10	72.1	72.1	72.1	33	41.4	1	4	315	0.00	29.899 
19:15	72.0	72.0	72.0	34	42.1	1	3	292	0.00	29.899 
19:20	71.6	71.6	71.6	33	41.0	2	4	270	0.00	29.899 
19:25	71.3	71.3	71.3	35	42.2	1	4	270	0.00	29.900 
19:30	71.1	71.1	71.1	35	42.0	1	4	315	0.00	29.901 
19:35	70.9	70.9	70.9	36	42.6	1	5	315	0.00	29.901 
19:40	70.8	70.8	70.8	37	43.2	1	3	292	0.00	29.901 
19:45	70.4	70.4	70.4	38	43.6	1	3	292	0.00	29.900 
19:50	70.3	70.3	70.3	39	44.2	1	2	292	0.00	29.901 
19:55	69.9	69.9	69.9	39	43.8	0	3	315	0.00	29.901 
20:00	69.8	69.8	69.8	39	43.7	1	2	292	0.00	29.901 
20:05	69.6	69.6	69.6	40	44.2	0	1	315	0.00	29.900 
20:10	69.3	69.3	69.3	41	44.6	0	2	315	0.00	29.901 
20:15	69.1	69.1	69.1	42	45.0	0	1	315	0.00	29.901 
20:20	68.8	68.8	68.8	42	44.8	0	1	315	0.00	29.901 
20:25	68.4	68.4	68.4	43	45.0	0	0	---	0.00	29.901 
20:30	68.3	68.3	68.3	43	44.9	0	0	---	0.00	29.900 
20:35	67.9	67.9	67.9	44	45.2	0	0	---	0.00	29.900 
20:40	67.4	67.4	67.4	46	45.9	0	0	---	0.00	29.900 
20:45	66.9	66.9	66.9	46	45.4	0	0	---	0.00	29.904 
20:50	66.3	66.3	66.3	47	45.5	0	0	---	0.00	29.904 
20:55	65.8	65.8	65.8	49	46.1	0	0	---	0.00	29.904 
21:00	65.3	65.3	65.3	50	46.2	0	0	---	0.00	29.904 
21:05	64.8	64.8	64.8	51	46.2	0	0	---	0.00	29.907 
21:10	64.3	64.3	64.3	51	45.8	0	0	---	0.00	29.908 
21:15	63.9	63.9	63.9	53	46.4	0	0	---	0.00	29.910 
21:20	63.4	63.4	63.4	55	46.9	0	0	---	0.00	29.910 
21:25	62.9	62.9	62.9	56	47.0	0	0	---	0.00	29.912 
21:30	62.6	62.6	62.6	57	47.1	0	0	---	0.00	29.913 
21:35	62.3	62.3	62.3	59	47.8	0	0	---	0.00	29.917 
21:40	62.0	62.0	62.0	59	47.5	0	0	---	0.00	29.919 
21:45	61.6	61.6	61.6	59	47.1	0	0	---	0.00	29.921 
21:50	61.3	61.3	61.3	60	47.3	0	0	---	0.00	29.921 
21:55	61.2	61.2	61.2	61	47.6	0	0	---	0.00	29.921 
22:00	60.9	60.9	60.9	61	47.4	0	0	---	0.00	29.921 
22:05	60.5	60.5	60.5	62	47.4	0	0	---	0.00	29.919 
22:10	60.4	60.4	60.4	63	47.7	0	0	---	0.00	29.920 
22:15	60.1	60.1	60.1	63	47.5	0	0	---	0.00	29.920 
22:20	59.9	59.9	59.9	64	47.7	0	0	---	0.00	29.920 
22:25	59.8	59.8	59.8	65	48.0	0	0	---	0.00	29.920 
22:30	59.6	59.6	59.6	65	47.8	0	0	---	0.00	29.918 
22:35	59.5	59.5	59.5	66	48.1	0	0	---	0.00	29.918 
22:40	59.3	59.3	59.3	66	47.9	0	0	---	0.00	29.915 
22:45	59.2	59.2	59.2	67	48.2	0	0	---	0.00	29.916 
22:50	59.0	59.0	59.0	69	48.8	0	0	---	0.00	29.917 
22:55	58.7	58.7	58.7	69	48.6	0	0	---	0.00	29.918 
23:00	58.6	58.6	58.6	70	48.8	0	0	---	0.00	29.919 
23:05	58.4	58.4	58.4	70	48.7	0	0	---	0.00	29.919 
23:10	58.4	58.4	58.4	71	49.0	0	0	---	0.00	29.922 
23:15	58.3	58.3	58.3	71	48.9	0	0	---	0.00	29.923 
23:20	58.3	58.3	58.3	72	49.3	0	0	---	0.00	29.924 
23:25	58.3	58.3	58.3	71	48.9	0	0	---	0.00	29.924 
23:30	58.4	58.4	58.4	71	49.0	0	0	---	0.00	29.924 
23:35	58.6	58.6	58.6	71	49.2	0	0	---	0.00	29.921 
23:40	58.7	58.7	58.7	71	49.3	0	0	---	0.00	29.921 
23:45	58.7	58.7	58.7	71	49.3	0	0	---	0.00	29.921 
23:50	58.7	58.7	58.7	71	49.3	0	0	---	0.00	29.921 
23:55	58.7	58.7	58.7	71	49.3	0	0	---	0.00	29.921 

CoCoRaHS
IN-AL-39
A2 Web Hosting
Creative Commons License
GoDaddy
Look for:

loaded 2017-10-18 07:25:30 • last modified 2010-11-18 10:43:29
Privacy PolicyDisclaimer
• wx.awcolley.com is powered by PmWiki v.2002016 •
• all content (unless otherwise noted) © 2017 A W Colley